createdAt,value
2018-12-09T00:00:31.514Z,988.10
2018-12-09T00:01:31.505Z,988.02
2018-12-09T00:02:31.490Z,987.96
2018-12-09T00:03:31.482Z,987.93
2018-12-09T00:04:31.473Z,987.94
2018-12-09T00:05:31.458Z,987.83
2018-12-09T00:06:31.452Z,987.88
2018-12-09T00:07:31.433Z,987.86
2018-12-09T00:08:31.422Z,987.77
2018-12-09T00:09:31.415Z,987.75
2018-12-09T00:10:31.401Z,987.74
2018-12-09T00:11:31.389Z,987.67
2018-12-09T00:12:31.381Z,987.67
2018-12-09T00:14:31.357Z,987.62
2018-12-09T00:16:31.331Z,987.51
2018-12-09T00:17:31.321Z,987.55
2018-12-09T00:18:31.312Z,987.49
2018-12-09T00:19:31.299Z,987.53
2018-12-09T00:20:31.288Z,987.48
2018-12-09T00:21:31.275Z,987.45
2018-12-09T00:22:31.266Z,987.37
2018-12-09T00:23:31.255Z,987.25
2018-12-09T00:24:31.241Z,987.24
2018-12-09T00:25:31.283Z,987.23
2018-12-09T00:26:31.228Z,987.19
2018-12-09T00:27:31.207Z,987.14
2018-12-09T00:28:31.201Z,987.11
2018-12-09T00:30:31.174Z,987.10
2018-12-09T00:31:31.166Z,987.06
2018-12-09T00:32:31.183Z,987.03
2018-12-09T00:33:31.139Z,987.02
2018-12-09T00:34:31.131Z,986.92
2018-12-09T00:36:31.105Z,986.89
2018-12-09T00:37:31.096Z,986.91
2018-12-09T00:38:31.084Z,986.93
2018-12-09T00:39:31.077Z,986.93
2018-12-09T00:40:31.067Z,986.87
2018-12-09T00:41:31.050Z,986.87
2018-12-09T00:42:31.039Z,986.74
2018-12-09T00:43:31.026Z,986.80
2018-12-09T00:44:31.016Z,986.73
2018-12-09T00:45:31.005Z,986.71
2018-12-09T00:46:31.085Z,986.63
2018-12-09T00:48:30.970Z,986.64
2018-12-09T00:49:30.960Z,986.61
2018-12-09T00:51:30.937Z,986.54
2018-12-09T00:53:30.921Z,986.60
2018-12-09T00:54:30.902Z,986.52
2018-12-09T00:56:30.881Z,986.46
2018-12-09T00:57:30.869Z,986.50
2018-12-09T00:58:30.859Z,986.45
2018-12-09T00:59:30.847Z,986.39
2018-12-09T01:02:30.814Z,986.39
2018-12-09T01:03:30.802Z,986.34
2018-12-09T01:04:30.793Z,986.29
2018-12-09T01:06:30.767Z,986.20
2018-12-09T01:07:30.757Z,986.13
2018-12-09T01:08:30.752Z,986.16
2018-12-09T01:10:30.723Z,985.97
2018-12-09T01:11:30.718Z,986.00
2018-12-09T01:12:30.702Z,985.88
2018-12-09T01:14:30.677Z,985.80
2018-12-09T01:15:30.666Z,985.73
2018-12-09T01:16:30.653Z,985.62
2018-12-09T01:17:30.642Z,985.70
2018-12-09T01:18:30.632Z,985.59
2018-12-09T01:19:30.622Z,985.58
2018-12-09T01:21:30.598Z,985.83
2018-12-09T01:23:30.574Z,985.58
2018-12-09T01:24:30.564Z,985.48
2018-12-09T01:25:30.553Z,985.37
2018-12-09T01:26:30.548Z,985.49
2018-12-09T01:29:30.511Z,985.32
2018-12-09T01:30:30.497Z,985.33
2018-12-09T01:33:30.467Z,985.31
2018-12-09T01:35:30.444Z,985.29
2018-12-09T01:36:30.430Z,985.22
2018-12-09T01:37:30.418Z,985.10
2018-12-09T01:42:30.362Z,985.25
2018-12-09T01:45:30.332Z,984.94
2018-12-09T01:46:30.415Z,984.98
2018-12-09T01:49:30.285Z,985.02
2018-12-09T01:51:30.262Z,984.89
2018-12-09T01:53:30.240Z,984.82
2018-12-09T01:54:30.226Z,984.78
2018-12-09T01:58:30.183Z,984.85
2018-12-09T02:00:30.166Z,984.82
2018-12-09T02:03:30.126Z,984.65
2018-12-09T02:14:30.001Z,984.38
2018-12-09T02:15:29.988Z,984.38
2018-12-09T02:20:29.931Z,984.31
2018-12-09T02:21:29.920Z,984.58
2018-12-09T02:24:29.887Z,984.41
2018-12-09T02:25:29.875Z,984.24
2018-12-09T02:32:29.799Z,984.10
2018-12-09T02:35:29.772Z,984.11
2018-12-09T02:38:29.729Z,984.02
2018-12-09T02:45:29.658Z,983.86
2018-12-09T02:51:29.584Z,983.76
2018-12-09T02:56:29.532Z,983.71
2018-12-09T02:58:29.510Z,983.63
2018-12-09T03:01:29.476Z,983.50
2018-12-09T03:12:29.352Z,983.44
2018-12-09T03:14:29.325Z,983.35
2018-12-09T03:19:29.276Z,983.22
2018-12-09T03:22:29.239Z,983.28
2018-12-09T03:24:29.213Z,983.24
2018-12-09T03:28:29.170Z,983.18
2018-12-09T03:29:29.161Z,983.22
2018-12-09T03:30:29.149Z,983.24
2018-12-09T03:33:29.119Z,983.22
2018-12-09T03:34:29.103Z,983.17
2018-12-09T03:41:29.028Z,983.12
2018-12-09T03:48:28.950Z,983.08
2018-12-09T03:49:28.977Z,983.10
2018-12-09T03:51:28.916Z,983.08
2018-12-09T03:52:28.906Z,983.01
2018-12-09T04:04:28.815Z,982.97
2018-12-09T04:09:28.772Z,983.01
2018-12-09T04:10:28.705Z,983.04
2018-12-09T04:13:28.675Z,982.97
2018-12-09T04:16:28.644Z,982.96
2018-12-09T04:17:28.627Z,982.93
2018-12-09T04:18:28.619Z,982.99
2018-12-09T04:21:28.584Z,982.88
2018-12-09T04:23:28.566Z,982.84
2018-12-09T04:24:28.553Z,982.92
2018-12-09T04:28:28.506Z,982.76
2018-12-09T04:29:28.502Z,982.84
2018-12-09T04:30:28.509Z,982.86
2018-12-09T04:31:28.482Z,982.78
2018-12-09T04:33:28.466Z,982.77
2018-12-09T04:34:28.447Z,982.77
2018-12-09T04:35:28.530Z,982.71
2018-12-09T04:36:28.422Z,982.77
2018-12-09T04:38:28.398Z,982.71
2018-12-09T04:41:28.373Z,982.76
2018-12-09T04:42:28.356Z,982.78
2018-12-09T04:44:28.331Z,982.78
2018-12-09T04:46:28.309Z,982.84
2018-12-09T04:50:28.266Z,982.78
2018-12-09T04:52:28.245Z,982.83
2018-12-09T04:53:28.235Z,982.83
2018-12-09T04:54:28.227Z,982.84
2018-12-09T04:55:28.215Z,982.75
2018-12-09T04:56:28.208Z,982.79
2018-12-09T04:57:28.192Z,982.84
2018-12-09T04:58:28.181Z,982.79
2018-12-09T04:59:28.173Z,982.87
2018-12-09T05:00:28.159Z,982.82
2018-12-09T05:01:28.151Z,982.83
2018-12-09T05:02:28.134Z,982.83
2018-12-09T05:04:28.117Z,982.76
2018-12-09T05:05:28.106Z,982.82
2018-12-09T05:06:28.095Z,982.88
2018-12-09T05:07:28.081Z,982.78
2018-12-09T05:08:28.070Z,982.90
2018-12-09T05:11:28.038Z,982.83
2018-12-09T05:13:28.020Z,982.89
2018-12-09T05:16:27.987Z,982.88
2018-12-09T05:17:27.975Z,982.85
2018-12-09T05:18:27.961Z,982.87
2018-12-09T05:19:27.952Z,982.87
2018-12-09T05:20:27.948Z,982.86
2018-12-09T05:21:27.938Z,982.88
2018-12-09T05:22:27.918Z,982.96
2018-12-09T05:23:27.908Z,982.88
2018-12-09T05:24:27.899Z,982.89
2018-12-09T05:25:27.898Z,982.99
2018-12-09T05:27:27.866Z,982.94
2018-12-09T05:28:27.851Z,982.96
2018-12-09T05:30:27.834Z,983.05
2018-12-09T05:31:27.828Z,983.03
2018-12-09T05:32:27.814Z,983.00
2018-12-09T05:33:27.801Z,982.97
2018-12-09T05:34:27.787Z,983.04
2018-12-09T05:35:27.777Z,983.10
2018-12-09T05:36:27.770Z,983.05
2018-12-09T05:38:27.741Z,983.06
2018-12-09T05:39:27.730Z,983.07
2018-12-09T05:40:27.730Z,983.05
2018-12-09T05:41:27.711Z,983.12
2018-12-09T05:42:27.707Z,983.17
2018-12-09T05:43:27.687Z,983.04
2018-12-09T05:44:27.682Z,983.12
2018-12-09T05:45:27.671Z,983.23
2018-12-09T05:46:27.662Z,983.17
2018-12-09T05:47:27.645Z,983.13
2018-12-09T05:48:27.636Z,983.11
2018-12-09T05:51:27.607Z,983.20
2018-12-09T05:52:27.588Z,983.15
2018-12-09T05:53:27.580Z,983.15
2018-12-09T05:54:27.569Z,983.27
2018-12-09T05:58:27.524Z,983.33
2018-12-09T05:59:27.516Z,983.31
2018-12-09T06:00:27.515Z,983.24
2018-12-09T06:01:27.493Z,983.28
2018-12-09T06:02:27.482Z,983.23
2018-12-09T06:03:27.468Z,983.24
2018-12-09T06:04:27.459Z,983.27
2018-12-09T06:05:27.448Z,983.25
2018-12-09T06:06:27.434Z,983.19
2018-12-09T06:07:27.426Z,983.31
2018-12-09T06:08:27.413Z,983.22
2018-12-09T06:10:27.393Z,983.20
2018-12-09T06:11:27.380Z,983.18
2018-12-09T06:12:27.375Z,983.20
2018-12-09T06:13:27.362Z,983.24
2018-12-09T06:14:27.349Z,983.32
2018-12-09T06:17:27.316Z,983.43
2018-12-09T06:18:27.303Z,983.30
2018-12-09T06:19:27.295Z,983.37
2018-12-09T06:20:27.283Z,983.39
2018-12-09T06:21:27.271Z,983.37
2018-12-09T06:23:27.253Z,983.48
2018-12-09T06:24:27.238Z,983.50
2018-12-09T06:25:27.236Z,983.55
2018-12-09T06:26:27.218Z,983.53
2018-12-09T06:27:27.207Z,983.58
2018-12-09T06:29:27.185Z,983.60
2018-12-09T06:30:27.175Z,983.63
2018-12-09T06:31:27.163Z,983.67
2018-12-09T06:32:27.157Z,983.74
2018-12-09T06:33:27.140Z,983.80
2018-12-09T06:34:27.132Z,983.76
2018-12-09T06:35:27.128Z,983.76
2018-12-09T06:36:27.113Z,983.76
2018-12-09T06:37:27.097Z,983.79
2018-12-09T06:38:27.092Z,983.87
2018-12-09T06:39:27.081Z,983.89
2018-12-09T06:40:27.067Z,983.85
2018-12-09T06:41:27.053Z,983.93
2018-12-09T06:42:27.046Z,983.89
2018-12-09T06:43:27.032Z,983.92
2018-12-09T06:44:27.021Z,983.89
2018-12-09T06:45:27.009Z,983.90
2018-12-09T06:46:26.998Z,983.94
2018-12-09T06:47:26.992Z,983.97
2018-12-09T06:48:26.983Z,984.06
2018-12-09T06:49:26.966Z,984.01
2018-12-09T06:50:26.956Z,983.94
2018-12-09T06:51:26.944Z,984.03
2018-12-09T06:52:26.945Z,984.04
2018-12-09T06:53:26.925Z,984.01
2018-12-09T06:54:26.911Z,984.00
2018-12-09T06:55:26.904Z,983.99
2018-12-09T06:56:26.900Z,984.07
2018-12-09T06:57:26.884Z,984.13
2018-12-09T06:58:26.874Z,984.10
2018-12-09T06:59:26.857Z,984.18
2018-12-09T07:00:26.844Z,984.18
2018-12-09T07:01:26.838Z,984.32
2018-12-09T07:02:26.823Z,984.29
2018-12-09T07:03:26.818Z,984.29
2018-12-09T07:04:26.810Z,984.30
2018-12-09T07:05:26.789Z,984.39
2018-12-09T07:06:26.779Z,984.37
2018-12-09T07:07:27.687Z,984.35
2018-12-09T07:08:26.760Z,984.39
2018-12-09T07:09:26.747Z,984.42
2018-12-09T07:10:26.738Z,984.40
2018-12-09T07:11:26.732Z,984.44
2018-12-09T07:12:26.719Z,984.45
2018-12-09T07:13:26.706Z,984.44
2018-12-09T07:14:26.691Z,984.53
2018-12-09T07:15:26.775Z,984.54
2018-12-09T07:16:26.774Z,984.54
2018-12-09T07:17:26.659Z,984.61
2018-12-09T07:18:26.652Z,984.67
2018-12-09T07:19:26.639Z,984.59
2018-12-09T07:20:26.631Z,984.64
2018-12-09T07:21:26.617Z,984.64
2018-12-09T07:22:26.608Z,984.67
2018-12-09T07:23:26.595Z,984.69
2018-12-09T07:24:26.583Z,984.67
2018-12-09T07:25:26.575Z,984.74
2018-12-09T07:26:26.563Z,984.77
2018-12-09T07:27:26.549Z,984.86
2018-12-09T07:28:26.541Z,984.89
2018-12-09T07:29:26.535Z,984.87
2018-12-09T07:30:26.519Z,984.95
2018-12-09T07:31:26.508Z,984.94
2018-12-09T07:32:26.503Z,984.89
2018-12-09T07:33:26.487Z,984.90
2018-12-09T07:34:26.474Z,985.02
2018-12-09T07:35:26.465Z,985.00
2018-12-09T07:36:26.453Z,984.98
2018-12-09T07:37:26.443Z,985.00
2018-12-09T07:38:26.431Z,985.00
2018-12-09T07:39:26.425Z,985.08
2018-12-09T07:40:26.410Z,985.04
2018-12-09T07:41:26.400Z,985.05
2018-12-09T07:42:26.386Z,985.07
2018-12-09T07:43:26.380Z,985.10
2018-12-09T07:44:26.367Z,985.10
2018-12-09T07:45:26.361Z,985.14
2018-12-09T07:46:26.348Z,985.07
2018-12-09T07:47:26.332Z,985.15
2018-12-09T07:48:26.320Z,985.17
2018-12-09T07:49:26.314Z,985.19
2018-12-09T07:50:26.299Z,985.19
2018-12-09T07:51:26.289Z,985.21
2018-12-09T07:52:26.278Z,985.23
2018-12-09T07:53:26.273Z,985.26
2018-12-09T07:54:26.255Z,985.24
2018-12-09T07:55:26.245Z,985.23
2018-12-09T07:56:26.231Z,985.29
2018-12-09T07:57:26.222Z,985.30
2018-12-09T07:58:26.211Z,985.28
2018-12-09T07:59:26.201Z,985.29
2018-12-09T08:00:26.190Z,985.32
2018-12-09T08:01:26.184Z,985.35
2018-12-09T08:02:26.167Z,985.35
2018-12-09T08:03:26.161Z,985.40
2018-12-09T08:04:26.148Z,985.38
2018-12-09T08:05:26.140Z,985.40
2018-12-09T08:06:26.123Z,985.41
2018-12-09T08:07:26.118Z,985.45
2018-12-09T08:08:26.107Z,985.48
2018-12-09T08:09:26.194Z,985.48
2018-12-09T08:10:26.079Z,985.55
2018-12-09T08:11:26.072Z,985.55
2018-12-09T08:12:26.056Z,985.59
2018-12-09T08:13:26.047Z,985.63
2018-12-09T08:14:26.039Z,985.66
2018-12-09T08:15:26.027Z,985.68
2018-12-09T08:16:26.012Z,985.68
2018-12-09T08:17:26.000Z,985.72
2018-12-09T08:18:26.001Z,985.67
2018-12-09T08:19:25.981Z,985.69
2018-12-09T08:20:25.971Z,985.72
2018-12-09T08:21:25.992Z,985.74
2018-12-09T08:22:25.947Z,985.79
2018-12-09T08:23:25.937Z,985.83
2018-12-09T08:24:25.948Z,985.85
2018-12-09T08:25:25.920Z,985.93
2018-12-09T08:26:25.905Z,985.85
2018-12-09T08:27:25.893Z,985.93
2018-12-09T08:28:25.881Z,985.88
2018-12-09T08:29:25.870Z,985.90
2018-12-09T08:30:25.860Z,985.97
2018-12-09T08:31:25.850Z,985.92
2018-12-09T08:32:25.837Z,985.90
2018-12-09T08:33:25.829Z,985.90
2018-12-09T08:34:25.817Z,985.98
2018-12-09T08:35:25.808Z,985.97
2018-12-09T08:36:25.798Z,985.98
2018-12-09T08:37:25.788Z,985.97
2018-12-09T08:38:25.771Z,985.99
2018-12-09T08:39:25.765Z,986.00
2018-12-09T08:40:25.751Z,985.99
2018-12-09T08:41:25.737Z,985.99
2018-12-09T08:42:25.728Z,986.06
2018-12-09T08:43:25.714Z,986.04
2018-12-09T08:44:25.705Z,985.98
2018-12-09T08:45:25.692Z,986.03
2018-12-09T08:46:25.686Z,986.09
2018-12-09T08:47:25.673Z,986.13
2018-12-09T08:48:25.659Z,986.22
2018-12-09T08:49:25.647Z,986.26
2018-12-09T08:50:25.643Z,986.25
2018-12-09T08:51:25.625Z,986.23
2018-12-09T08:52:25.613Z,986.28
2018-12-09T08:53:25.601Z,986.23
2018-12-09T08:54:25.596Z,986.31
2018-12-09T08:55:25.627Z,986.27
2018-12-09T08:56:25.569Z,986.24
2018-12-09T08:57:25.556Z,986.30
2018-12-09T08:58:25.549Z,986.35
2018-12-09T08:59:25.545Z,986.44
2018-12-09T09:00:25.528Z,986.36
2018-12-09T09:01:25.520Z,986.49
2018-12-09T09:02:25.509Z,986.42
2018-12-09T09:03:25.492Z,986.52
2018-12-09T09:04:25.482Z,986.49
2018-12-09T09:05:25.470Z,986.50
2018-12-09T09:06:25.458Z,986.52
2018-12-09T09:07:25.449Z,986.51
2018-12-09T09:08:25.441Z,986.49
2018-12-09T09:09:25.425Z,986.55
2018-12-09T09:10:25.413Z,986.54
2018-12-09T09:11:25.407Z,986.61
2018-12-09T09:12:25.395Z,986.54
2018-12-09T09:13:25.380Z,986.57
2018-12-09T09:14:25.380Z,986.63
2018-12-09T09:15:25.362Z,986.63
2018-12-09T09:16:25.349Z,986.57
2018-12-09T09:17:25.340Z,986.59
2018-12-09T09:18:25.336Z,986.60
2018-12-09T09:19:25.321Z,986.65
2018-12-09T09:20:25.306Z,986.69
2018-12-09T09:21:25.304Z,986.74
2018-12-09T09:22:25.286Z,986.75
2018-12-09T09:23:25.279Z,986.75
2018-12-09T09:24:25.274Z,986.65
2018-12-09T09:25:25.262Z,986.73
2018-12-09T09:26:25.245Z,986.77
2018-12-09T09:27:25.232Z,986.80
2018-12-09T09:28:25.220Z,986.78
2018-12-09T09:29:25.209Z,986.84
2018-12-09T09:30:25.306Z,986.89
2018-12-09T09:31:25.194Z,986.87
2018-12-09T09:32:25.175Z,986.77
2018-12-09T09:33:25.269Z,986.84
2018-12-09T09:34:25.154Z,986.91
2018-12-09T09:35:25.150Z,986.85
2018-12-09T09:36:25.138Z,986.84
2018-12-09T09:37:25.121Z,986.87
2018-12-09T09:38:25.109Z,986.91
2018-12-09T09:39:25.099Z,986.91
2018-12-09T09:40:25.092Z,986.93
2018-12-09T09:41:25.077Z,986.94
2018-12-09T09:42:25.064Z,986.90
2018-12-09T09:43:25.057Z,986.82
2018-12-09T09:44:25.047Z,986.93
2018-12-09T09:45:25.033Z,986.82
2018-12-09T09:46:25.022Z,986.94
2018-12-09T09:47:25.011Z,986.99
2018-12-09T09:48:24.998Z,986.94
2018-12-09T09:49:24.992Z,986.99
2018-12-09T09:50:24.976Z,986.98
2018-12-09T09:51:25.064Z,986.94
2018-12-09T09:52:24.981Z,986.94
2018-12-09T09:53:24.985Z,987.05
2018-12-09T09:54:24.987Z,987.02
2018-12-09T09:55:24.935Z,987.03
2018-12-09T09:56:24.935Z,987.05
2018-12-09T09:57:24.933Z,987.13
2018-12-09T09:58:24.941Z,987.12
2018-12-09T09:59:24.876Z,987.15
2018-12-09T10:00:24.866Z,987.19
2018-12-09T10:01:24.859Z,987.19
2018-12-09T10:02:24.848Z,987.14
2018-12-09T10:03:25.960Z,987.23
2018-12-09T10:04:24.821Z,987.23
2018-12-09T10:05:24.816Z,987.25
2018-12-09T10:06:24.800Z,987.21
2018-12-09T10:07:24.790Z,987.20
2018-12-09T10:08:24.781Z,987.15
2018-12-09T10:09:24.765Z,987.22
2018-12-09T10:10:24.757Z,987.22
2018-12-09T10:11:24.755Z,987.26
2018-12-09T10:12:24.733Z,987.23
2018-12-09T10:13:24.722Z,987.21
2018-12-09T10:14:24.715Z,987.21
2018-12-09T10:15:24.707Z,987.31
2018-12-09T10:16:24.690Z,987.24
2018-12-09T10:17:24.678Z,987.29
2018-12-09T10:18:24.670Z,987.33
2018-12-09T10:19:24.661Z,987.21
2018-12-09T10:20:24.651Z,987.15
2018-12-09T10:21:24.636Z,987.29
2018-12-09T10:22:24.626Z,987.16
2018-12-09T10:23:24.614Z,987.20
2018-12-09T10:24:24.602Z,987.18
2018-12-09T10:25:24.591Z,987.21
2018-12-09T10:26:24.581Z,987.23
2018-12-09T10:27:24.570Z,987.25
2018-12-09T10:28:24.559Z,987.20
2018-12-09T10:29:24.554Z,987.22
2018-12-09T10:30:24.544Z,987.19
2018-12-09T10:31:24.529Z,987.17
2018-12-09T10:32:24.518Z,987.24
2018-12-09T10:33:24.506Z,987.20
2018-12-09T10:34:24.494Z,987.21
2018-12-09T10:35:24.482Z,987.17
2018-12-09T10:36:24.474Z,987.22
2018-12-09T10:37:24.458Z,987.24
2018-12-09T10:38:24.451Z,987.17
2018-12-09T10:39:24.436Z,987.27
2018-12-09T10:40:24.433Z,987.25
2018-12-09T10:41:24.417Z,987.27
2018-12-09T10:42:24.405Z,987.31
2018-12-09T10:43:24.393Z,987.20
2018-12-09T10:44:24.386Z,987.21
2018-12-09T10:45:24.370Z,987.23
2018-12-09T10:46:24.358Z,987.28
2018-12-09T10:47:24.348Z,987.26
2018-12-09T10:48:24.335Z,987.28
2018-12-09T10:49:24.324Z,987.29
2018-12-09T10:50:24.315Z,987.31
2018-12-09T10:51:24.320Z,987.30
2018-12-09T10:52:24.289Z,987.32
2018-12-09T10:53:24.284Z,987.34
2018-12-09T10:54:24.266Z,987.32
2018-12-09T10:55:24.260Z,987.39
2018-12-09T10:56:24.244Z,987.37
2018-12-09T10:57:24.237Z,987.39
2018-12-09T10:58:24.230Z,987.36
2018-12-09T10:59:24.213Z,987.36
2018-12-09T11:00:24.200Z,987.42
2018-12-09T11:01:24.193Z,987.41
2018-12-09T11:02:24.177Z,987.41
2018-12-09T11:03:24.168Z,987.38
2018-12-09T11:04:24.154Z,987.36
2018-12-09T11:05:24.148Z,987.44
2018-12-09T11:06:24.135Z,987.43
2018-12-09T11:07:24.131Z,987.45
2018-12-09T11:08:24.115Z,987.45
2018-12-09T11:09:24.108Z,987.48
2018-12-09T11:10:24.092Z,987.47
2018-12-09T11:11:24.079Z,987.49
2018-12-09T11:12:24.068Z,987.55
2018-12-09T11:13:24.064Z,987.52
2018-12-09T11:14:24.048Z,987.58
2018-12-09T11:15:24.035Z,987.50
2018-12-09T11:16:24.025Z,987.51
2018-12-09T11:17:24.014Z,987.53
2018-12-09T11:18:24.005Z,987.52
2018-12-09T11:19:23.995Z,987.53
2018-12-09T11:20:23.982Z,987.51
2018-12-09T11:21:30.485Z,987.54
2018-12-09T11:22:48.439Z,987.52
2018-12-09T11:23:48.428Z,987.57
2018-12-09T11:24:48.423Z,987.58
2018-12-09T11:25:48.407Z,987.53
2018-12-09T11:26:48.394Z,987.51
2018-12-09T11:27:48.379Z,987.58
2018-12-09T11:28:48.369Z,987.53
2018-12-09T11:29:48.356Z,987.46
2018-12-09T11:30:48.345Z,987.56
2018-12-09T11:31:48.339Z,987.54
2018-12-09T11:32:48.325Z,987.55
2018-12-09T11:33:48.308Z,987.52
2018-12-09T11:34:48.302Z,987.56
2018-12-09T11:35:48.293Z,987.52
2018-12-09T11:36:48.276Z,987.46
2018-12-09T11:37:48.264Z,987.45
2018-12-09T11:38:48.251Z,987.45
2018-12-09T11:39:48.247Z,987.52
2018-12-09T11:40:48.229Z,987.50
2018-12-09T11:41:48.216Z,987.50
2018-12-09T11:42:48.204Z,987.47
2018-12-09T11:43:48.194Z,987.53
2018-12-09T11:44:48.183Z,987.44
2018-12-09T11:45:48.170Z,987.46
2018-12-09T11:46:48.156Z,987.43
2018-12-09T11:47:48.146Z,987.45
2018-12-09T11:48:48.134Z,987.42
2018-12-09T11:49:48.124Z,987.48
2018-12-09T11:50:48.112Z,987.41
2018-12-09T11:51:48.100Z,987.44
2018-12-09T11:52:48.087Z,987.46
2018-12-09T11:53:48.080Z,987.45
2018-12-09T11:54:48.064Z,987.50
2018-12-09T11:55:48.053Z,987.50
2018-12-09T11:56:48.041Z,987.47
2018-12-09T11:57:48.028Z,987.48
2018-12-09T11:58:48.018Z,987.50
2018-12-09T11:59:48.008Z,987.49
2018-12-09T12:00:47.996Z,987.53
2018-12-09T12:01:47.984Z,987.49
2018-12-09T12:02:47.970Z,987.58
2018-12-09T12:03:47.958Z,987.49
2018-12-09T12:04:47.948Z,987.58
2018-12-09T12:05:47.939Z,987.55
2018-12-09T12:06:47.922Z,987.52
2018-12-09T12:07:47.912Z,987.58
2018-12-09T12:08:47.900Z,987.56
2018-12-09T12:09:47.893Z,987.54
2018-12-09T12:10:47.878Z,987.55
2018-12-09T12:11:47.866Z,987.53
2018-12-09T12:12:47.856Z,987.57
2018-12-09T12:13:47.847Z,987.63
2018-12-09T12:14:47.831Z,987.63
2018-12-09T12:15:47.823Z,987.60
2018-12-09T12:16:47.806Z,987.68
2018-12-09T12:17:47.794Z,987.64
2018-12-09T12:18:47.788Z,987.66
2018-12-09T12:19:47.772Z,987.66
2018-12-09T12:20:47.760Z,987.61
2018-12-09T12:21:47.752Z,987.66
2018-12-09T12:22:47.736Z,987.63
2018-12-09T12:23:47.730Z,987.69
2018-12-09T12:24:47.711Z,987.72
2018-12-09T12:25:47.703Z,987.72
2018-12-09T12:26:47.688Z,987.72
2018-12-09T12:27:47.679Z,987.69
2018-12-09T12:28:47.665Z,987.77
2018-12-09T12:29:47.652Z,987.74
2018-12-09T12:30:47.640Z,987.78
2018-12-09T12:31:47.630Z,987.82
2018-12-09T12:32:47.623Z,987.78
2018-12-09T12:33:47.613Z,987.83
2018-12-09T12:34:47.598Z,987.84
2018-12-09T12:35:47.582Z,987.79
2018-12-09T12:36:47.571Z,987.86
2018-12-09T12:37:47.561Z,987.80
2018-12-09T12:38:47.547Z,987.84
2018-12-09T12:39:47.538Z,987.91
2018-12-09T12:40:47.525Z,987.92
2018-12-09T12:41:47.517Z,987.91
2018-12-09T12:42:47.502Z,987.87
2018-12-09T12:43:47.490Z,987.89
2018-12-09T12:44:47.482Z,987.88
2018-12-09T12:45:47.465Z,987.96
2018-12-09T12:46:47.464Z,987.93
2018-12-09T12:47:47.442Z,987.84
2018-12-09T12:48:47.437Z,987.90
2018-12-09T12:49:47.419Z,987.95
2018-12-09T12:50:47.408Z,987.91
2018-12-09T12:51:47.398Z,987.95
2018-12-09T12:52:47.384Z,987.95
2018-12-09T12:53:47.372Z,987.93
2018-12-09T12:54:47.362Z,987.93
2018-12-09T12:55:47.353Z,987.94
2018-12-09T12:56:47.343Z,987.91
2018-12-09T12:57:47.325Z,987.92
2018-12-09T12:58:47.321Z,987.98
2018-12-09T12:59:47.303Z,987.99
2018-12-09T13:00:47.290Z,987.95
2018-12-09T13:01:47.284Z,987.96
2018-12-09T13:02:47.265Z,987.97
2018-12-09T13:03:47.256Z,988.00
2018-12-09T13:04:47.243Z,988.01
2018-12-09T13:05:47.232Z,988.07
2018-12-09T13:06:47.226Z,988.02
2018-12-09T13:07:47.214Z,987.99
2018-12-09T13:08:47.194Z,988.08
2018-12-09T13:09:47.183Z,988.06
2018-12-09T13:10:47.273Z,988.08
2018-12-09T13:11:47.159Z,988.04
2018-12-09T13:12:47.147Z,988.06
2018-12-09T13:13:47.139Z,988.06
2018-12-09T13:14:47.124Z,988.15
2018-12-09T13:15:47.113Z,988.15
2018-12-09T13:16:47.102Z,988.15
2018-12-09T13:17:47.088Z,988.19
2018-12-09T13:18:47.080Z,988.11
2018-12-09T13:19:47.066Z,988.20
2018-12-09T13:20:47.057Z,988.23
2018-12-09T13:21:47.041Z,988.22
2018-12-09T13:22:47.038Z,988.15
2018-12-09T13:23:47.020Z,988.23
2018-12-09T13:24:47.014Z,988.25
2018-12-09T13:25:47.005Z,988.24
2018-12-09T13:26:46.989Z,988.30
2018-12-09T13:27:46.971Z,988.31
2018-12-09T13:28:46.959Z,988.34
2018-12-09T13:29:46.949Z,988.31
2018-12-09T13:30:46.937Z,988.38
2018-12-09T13:31:46.926Z,988.34
2018-12-09T13:32:46.913Z,988.38
2018-12-09T13:33:46.900Z,988.41
2018-12-09T13:34:46.889Z,988.44
2018-12-09T13:35:46.888Z,988.45
2018-12-09T13:36:46.874Z,988.42
2018-12-09T13:37:46.855Z,988.51
2018-12-09T13:38:46.847Z,988.57
2018-12-09T13:39:46.832Z,988.53
2018-12-09T13:40:46.823Z,988.50
2018-12-09T13:41:46.818Z,988.59
2018-12-09T13:42:46.800Z,988.62
2018-12-09T13:43:46.795Z,988.67
2018-12-09T13:44:46.777Z,988.61
2018-12-09T13:45:46.766Z,988.59
2018-12-09T13:46:46.754Z,988.58
2018-12-09T13:47:46.748Z,988.63
2018-12-09T13:48:46.729Z,988.62
2018-12-09T13:49:46.727Z,988.68
2018-12-09T13:50:46.707Z,988.60
2018-12-09T13:51:46.693Z,988.66
2018-12-09T13:52:46.684Z,988.66
2018-12-09T13:53:46.672Z,988.65
2018-12-09T13:54:46.660Z,988.64
2018-12-09T13:55:46.650Z,988.69
2018-12-09T13:56:46.638Z,988.70
2018-12-09T13:57:46.626Z,988.71
2018-12-09T13:58:46.615Z,988.63
2018-12-09T13:59:46.604Z,988.73
2018-12-09T14:00:46.591Z,988.76
2018-12-09T14:01:46.579Z,988.79
2018-12-09T14:02:46.578Z,988.81
2018-12-09T14:03:46.556Z,988.81
2018-12-09T14:04:46.546Z,988.80
2018-12-09T14:05:46.616Z,988.80
2018-12-09T14:06:46.523Z,988.86
2018-12-09T14:07:46.512Z,988.84
2018-12-09T14:08:46.500Z,988.84
2018-12-09T14:09:46.490Z,988.80
2018-12-09T14:10:46.476Z,988.86
2018-12-09T14:11:46.468Z,988.79
2018-12-09T14:12:46.454Z,988.90
2018-12-09T14:13:46.442Z,988.87
2018-12-09T14:14:46.431Z,988.79
2018-12-09T14:15:46.420Z,988.83
2018-12-09T14:16:46.415Z,988.85
2018-12-09T14:17:46.399Z,988.88
2018-12-09T14:18:46.426Z,988.81
2018-12-09T14:19:46.384Z,988.86
2018-12-09T14:20:46.362Z,988.82
2018-12-09T14:21:46.353Z,988.86
2018-12-09T14:22:46.339Z,988.87
2018-12-09T14:23:46.330Z,988.90
2018-12-09T14:24:46.316Z,988.97
2018-12-09T14:25:46.304Z,988.94
2018-12-09T14:26:46.297Z,988.96
2018-12-09T14:27:46.282Z,988.90
2018-12-09T14:28:46.269Z,988.94
2018-12-09T14:29:46.255Z,988.99
2018-12-09T14:30:46.245Z,988.94
2018-12-09T14:31:46.238Z,988.93
2018-12-09T14:32:46.235Z,988.95
2018-12-09T14:33:46.210Z,989.01
2018-12-09T14:34:46.201Z,988.93
2018-12-09T14:35:46.186Z,988.95
2018-12-09T14:36:46.175Z,989.00
2018-12-09T14:37:46.163Z,988.95
2018-12-09T14:38:46.154Z,988.97
2018-12-09T14:39:46.140Z,989.04
2018-12-09T14:40:46.133Z,989.05
2018-12-09T14:41:46.117Z,989.04
2018-12-09T14:42:46.106Z,989.11
2018-12-09T14:43:46.093Z,989.07
2018-12-09T14:44:46.086Z,989.04
2018-12-09T14:45:48.892Z,989.08
2018-12-09T14:46:46.059Z,989.07
2018-12-09T14:47:46.046Z,989.15
2018-12-09T14:48:46.035Z,989.16
2018-12-09T14:49:46.026Z,989.15
2018-12-09T14:50:46.020Z,989.21
2018-12-09T14:51:46.002Z,989.23
2018-12-09T14:52:45.994Z,989.20
2018-12-09T14:53:45.994Z,989.16
2018-12-09T14:54:45.998Z,989.25
2018-12-09T14:55:46.009Z,989.18
2018-12-09T14:56:45.945Z,989.18
2018-12-09T14:57:45.948Z,989.31
2018-12-09T14:58:45.949Z,989.30
2018-12-09T14:59:45.954Z,989.27
2018-12-09T15:00:45.899Z,989.33
2018-12-09T15:01:45.889Z,989.41
2018-12-09T15:02:45.880Z,989.41
2018-12-09T15:03:45.869Z,989.37
2018-12-09T15:04:45.859Z,989.33
2018-12-09T15:05:45.843Z,989.44
2018-12-09T15:06:45.830Z,989.40
2018-12-09T15:07:45.820Z,989.40
2018-12-09T15:08:45.817Z,989.39
2018-12-09T15:09:45.801Z,989.46
2018-12-09T15:10:45.791Z,989.43
2018-12-09T15:11:45.771Z,989.48
2018-12-09T15:12:45.765Z,989.49
2018-12-09T15:13:45.748Z,989.48
2018-12-09T15:14:45.738Z,989.42
2018-12-09T15:15:45.727Z,989.46
2018-12-09T15:16:45.720Z,989.46
2018-12-09T15:17:45.710Z,989.56
2018-12-09T15:18:45.691Z,989.51